AWST,Max TemperatureF,Mean TemperatureF,Min TemperatureF,Max Dew PointF,MeanDew PointF,Min DewpointF,Max Humidity, Mean Humidity, Min Humidity, Max Sea Level PressureIn, Mean Sea Level PressureIn, Min Sea Level PressureIn, Max VisibilityMiles, Mean VisibilityMiles, Min VisibilityMiles, Max Wind SpeedMPH, Mean Wind SpeedMPH, Max Gust SpeedMPH,PrecipitationIn, CloudCover, Events, WindDirDegrees
2012-11-1,104,89,74,75,66,60,74,47,16,29.86,29.78,29.68,,,,10,5,,0.00,,,293
2012-11-2,105,89,73,78,70,61,89,59,19,29.83,29.76,29.67,,,,10,5,,0.00,,,334
2012-11-3,108,92,76,77,71,55,94,63,14,29.80,29.73,29.62,,,,16,7,,0.00,,,333
2012-11-4,101,89,77,75,71,63,89,60,24,29.83,29.77,29.68,,,,13,6,,0.00,,,355
2012-11-5,106,90,75,75,70,61,94,59,17,29.83,29.75,29.65,,,,10,5,,0.00,,,301
2012-11-6,104,88,73,73,66,57,83,52,16,29.83,29.77,29.68,,,,10,4,,0.00,,,304
2012-11-7,104,86,69,73,66,52,89,57,13,29.83,29.76,29.68,,,,12,6,,0.00,,,303
2012-11-8,107,86,66,72,60,39,94,51,8,29.83,29.75,29.65,,,,9,5,,0.00,,,282
2012-11-9,106,88,70,68,41,32,83,25,4,29.83,29.76,29.68,,,,15,6,21,0.00,,,157
2012-11-10,101,88,74,77,67,39,83,55,13,29.89,29.81,29.74,,,,14,7,25,0.16,,,10
2012-11-11,101,88,76,75,70,61,89,59,23,29.92,29.84,29.77,,,,10,6,,0.00,,,14
2012-11-12,102,89,76,73,66,59,83,47,17,29.92,29.82,29.71,,,,8,5,,0.00,,,218
2012-11-13,106,88,70,75,61,54,78,42,14,29.83,29.78,29.68,,,,17,5,,0.00,,,296
2012-11-14,101,89,77,77,72,64,89,62,24,29.86,29.81,29.71,,,,15,8,,0.08,,,344
2012-11-15,103,90,76,79,74,70,94,68,30,29.86,29.82,29.73,,,,14,6,,0.00,,,338
2012-11-16,104,90,75,79,73,68,89,61,26,29.89,29.80,29.71,,,,14,5,,0.00,,,310
2012-11-17,105,91,77,77,73,66,94,63,24,29.86,29.76,29.65,,,,12,5,,0.00,,,340
2012-11-18,105,91,77,76,70,52,89,59,12,29.83,29.75,29.68,,,,10,6,,0.00,,,319
2012-11-19,106,92,78,77,70,61,79,58,17,29.86,29.78,29.68,,,,13,7,,0.00,,,6
2012-11-20,106,92,77,75,70,64,78,55,21,29.89,29.80,29.71,,,,12,4,,0.00,,,315
2012-11-21,104,92,79,73,68,64,74,52,25,29.89,29.81,29.73,,,,13,4,,0.04,,,126
2012-11-22,102,90,77,70,68,64,74,52,23,29.86,29.79,29.71,,,,16,3,30,0.00,,,267
2012-11-23,106,92,77,73,70,66,83,58,22,29.89,29.80,29.71,,,,14,4,,0.02,,,286
2012-11-24,108,92,77,73,68,59,83,54,13,29.87,29.80,29.71,,,,9,6,,0.00,,,237
2012-11-25,108,92,77,77,70,63,84,53,19,29.89,29.81,29.71,,,,14,6,,0.00,,,295
2012-11-26,97,88,79,77,71,66,89,60,36,29.92,29.85,29.77,,,,10,6,,0.00,,,32
2012-11-27,106,94,81,77,69,57,89,53,17,29.86,29.79,29.70,,,,9,5,,0.00,,,277
2012-11-28,105,90,75,77,70,63,84,55,20,29.89,29.80,29.68,,,,12,5,,0.00,,,289
2012-11-29,105,90,76,75,70,61,89,56,17,29.86,29.79,29.68,,,,10,5,,0.00,,,291
2012-11-30,105,90,75,75,72,63,94,62,21,29.86,29.77,29.65,,,,9,6,,0.55,,,286